sensor_id;sensor_type;location;lat;lon;timestamp;P1;durP1;ratioP1;P2;durP2;ratioP2
46407;SDS011;32110;45.724;21.276;2024-03-23T00:54:21;31.20;;;16.63;;
46407;SDS011;32110;45.724;21.276;2024-03-23T00:56:47;37.03;;;17.95;;
46407;SDS011;32110;45.724;21.276;2024-03-23T00:59:12;32.25;;;15.93;;
46407;SDS011;32110;45.724;21.276;2024-03-23T01:01:39;32.05;;;17.33;;
46407;SDS011;32110;45.724;21.276;2024-03-23T01:04:04;32.40;;;17.50;;
46407;SDS011;32110;45.724;21.276;2024-03-23T01:06:30;35.35;;;17.88;;
46407;SDS011;32110;45.724;21.276;2024-03-23T01:08:55;36.47;;;18.23;;
46407;SDS011;32110;45.724;21.276;2024-03-23T01:11:21;33.47;;;18.35;;
46407;SDS011;32110;45.724;21.276;2024-03-23T01:13:46;39.97;;;18.33;;
46407;SDS011;32110;45.724;21.276;2024-03-23T01:16:12;36.50;;;18.65;;
46407;SDS011;32110;45.724;21.276;2024-03-23T01:18:37;36.88;;;20.27;;
46407;SDS011;32110;45.724;21.276;2024-03-23T01:21:03;42.92;;;19.70;;
46407;SDS011;32110;45.724;21.276;2024-03-23T01:23:28;38.08;;;20.55;;
46407;SDS011;32110;45.724;21.276;2024-03-23T01:25:54;39.55;;;19.83;;
46407;SDS011;32110;45.724;21.276;2024-03-23T01:28:20;40.95;;;21.48;;
46407;SDS011;32110;45.724;21.276;2024-03-23T01:30:46;41.42;;;21.08;;
46407;SDS011;32110;45.724;21.276;2024-03-23T01:33:12;43.03;;;20.17;;
46407;SDS011;32110;45.724;21.276;2024-03-23T01:35:37;42.05;;;21.95;;
46407;SDS011;32110;45.724;21.276;2024-03-23T01:38:03;45.72;;;22.15;;
46407;SDS011;32110;45.724;21.276;2024-03-23T01:40:29;45.70;;;22.73;;
46407;SDS011;32110;45.724;21.276;2024-03-23T01:43:04;44.05;;;22.65;;
46407;SDS011;32110;45.724;21.276;2024-03-23T01:45:31;45.53;;;22.55;;
46407;SDS011;32110;45.724;21.276;2024-03-23T01:47:57;39.90;;;22.52;;
46407;SDS011;32110;45.724;21.276;2024-03-23T01:50:23;45.72;;;22.60;;
46407;SDS011;32110;45.724;21.276;2024-03-23T01:52:51;44.83;;;22.30;;
46407;SDS011;32110;45.724;21.276;2024-03-23T01:55:18;46.35;;;22.73;;
46407;SDS011;32110;45.724;21.276;2024-03-23T01:57:44;44.28;;;22.67;;
46407;SDS011;32110;45.724;21.276;2024-03-23T02:00:10;47.17;;;21.80;;
46407;SDS011;32110;45.724;21.276;2024-03-23T02:02:46;38.50;;;21.45;;
46407;SDS011;32110;45.724;21.276;2024-03-23T02:05:12;42.58;;;21.67;;
46407;SDS011;32110;45.724;21.276;2024-03-23T02:07:42;40.42;;;20.92;;
46407;SDS011;32110;45.724;21.276;2024-03-23T02:10:10;43.15;;;22.42;;
46407;SDS011;32110;45.724;21.276;2024-03-23T02:12:40;39.63;;;21.85;;
46407;SDS011;32110;45.724;21.276;2024-03-23T02:15:05;45.05;;;22.02;;
46407;SDS011;32110;45.724;21.276;2024-03-23T02:17:32;47.40;;;22.67;;
46407;SDS011;32110;45.724;21.276;2024-03-23T02:19:59;43.40;;;22.77;;
46407;SDS011;32110;45.724;21.276;2024-03-23T02:22:25;41.60;;;21.98;;
46407;SDS011;32110;45.724;21.276;2024-03-23T02:24:50;42.75;;;22.25;;
46407;SDS011;32110;45.724;21.276;2024-03-23T02:27:16;46.35;;;22.23;;
46407;SDS011;32110;45.724;21.276;2024-03-23T02:29:41;41.90;;;21.73;;
46407;SDS011;32110;45.724;21.276;2024-03-23T02:32:06;42.83;;;20.88;;
46407;SDS011;32110;45.724;21.276;2024-03-23T02:34:34;44.35;;;21.58;;
46407;SDS011;32110;45.724;21.276;2024-03-23T02:36:59;41.78;;;21.15;;
46407;SDS011;32110;45.724;21.276;2024-03-23T02:39:24;40.17;;;20.77;;
46407;SDS011;32110;45.724;21.276;2024-03-23T02:41:50;45.60;;;21.65;;
46407;SDS011;32110;45.724;21.276;2024-03-23T02:44:15;42.78;;;20.92;;
46407;SDS011;32110;45.724;21.276;2024-03-23T02:46:41;40.95;;;22.65;;
46407;SDS011;32110;45.724;21.276;2024-03-23T02:49:06;44.70;;;21.77;;
46407;SDS011;32110;45.724;21.276;2024-03-23T02:51:32;41.97;;;21.90;;
46407;SDS011;32110;45.724;21.276;2024-03-23T02:53:57;40.20;;;20.63;;
46407;SDS011;32110;45.724;21.276;2024-03-23T02:56:23;45.03;;;22.08;;
46407;SDS011;32110;45.724;21.276;2024-03-23T02:58:48;43.50;;;21.88;;
46407;SDS011;32110;45.724;21.276;2024-03-23T03:01:14;48.88;;;21.73;;
46407;SDS011;32110;45.724;21.276;2024-03-23T03:03:40;38.95;;;21.20;;
46407;SDS011;32110;45.724;21.276;2024-03-23T03:06:05;39.08;;;21.35;;
46407;SDS011;32110;45.724;21.276;2024-03-23T03:08:31;40.10;;;20.65;;
46407;SDS011;32110;45.724;21.276;2024-03-23T03:10:56;42.78;;;21.20;;
46407;SDS011;32110;45.724;21.276;2024-03-23T03:13:22;39.45;;;20.67;;
46407;SDS011;32110;45.724;21.276;2024-03-23T03:15:47;37.20;;;20.40;;
46407;SDS011;32110;45.724;21.276;2024-03-23T03:18:13;40.42;;;21.00;;
46407;SDS011;32110;45.724;21.276;2024-03-23T03:20:41;41.17;;;19.60;;
46407;SDS011;32110;45.724;21.276;2024-03-23T03:23:07;36.70;;;20.23;;
46407;SDS011;32110;45.724;21.276;2024-03-23T03:25:32;42.00;;;20.20;;
46407;SDS011;32110;45.724;21.276;2024-03-23T03:27:58;37.80;;;20.35;;
46407;SDS011;32110;45.724;21.276;2024-03-23T03:30:24;42.97;;;20.35;;
46407;SDS011;32110;45.724;21.276;2024-03-23T03:32:49;37.80;;;19.48;;
46407;SDS011;32110;45.724;21.276;2024-03-23T03:35:16;41.60;;;18.95;;
46407;SDS011;32110;45.724;21.276;2024-03-23T03:37:41;41.22;;;19.48;;
46407;SDS011;32110;45.724;21.276;2024-03-23T03:40:07;46.67;;;20.33;;
46407;SDS011;32110;45.724;21.276;2024-03-23T03:42:34;42.63;;;19.63;;
46407;SDS011;32110;45.724;21.276;2024-03-23T03:45:00;44.58;;;19.52;;
46407;SDS011;32110;45.724;21.276;2024-03-23T03:47:25;36.28;;;18.25;;
46407;SDS011;32110;45.724;21.276;2024-03-23T03:49:51;37.15;;;19.52;;
46407;SDS011;32110;45.724;21.276;2024-03-23T03:52:16;39.30;;;19.05;;
46407;SDS011;32110;45.724;21.276;2024-03-23T03:54:42;39.78;;;18.58;;
46407;SDS011;32110;45.724;21.276;2024-03-23T03:57:07;39.33;;;18.40;;
46407;SDS011;32110;45.724;21.276;2024-03-23T03:59:33;41.05;;;18.80;;
46407;SDS011;32110;45.724;21.276;2024-03-23T04:01:58;33.85;;;18.77;;
46407;SDS011;32110;45.724;21.276;2024-03-23T04:04:24;41.80;;;18.77;;
46407;SDS011;32110;45.724;21.276;2024-03-23T04:06:49;34.22;;;17.50;;
46407;SDS011;32110;45.724;21.276;2024-03-23T04:09:15;40.03;;;17.88;;
46407;SDS011;32110;45.724;21.276;2024-03-23T04:11:40;38.20;;;18.00;;
46407;SDS011;32110;45.724;21.276;2024-03-23T04:14:05;35.70;;;18.45;;
46407;SDS011;32110;45.724;21.276;2024-03-23T04:16:34;39.33;;;18.13;;
46407;SDS011;32110;45.724;21.276;2024-03-23T04:19:00;34.35;;;18.25;;
46407;SDS011;32110;45.724;21.276;2024-03-23T04:21:26;31.40;;;17.23;;
46407;SDS011;32110;45.724;21.276;2024-03-23T04:23:52;36.90;;;17.05;;
46407;SDS011;32110;45.724;21.276;2024-03-23T04:26:17;35.25;;;17.90;;
46407;SDS011;32110;45.724;21.276;2024-03-23T04:28:43;31.45;;;16.65;;
46407;SDS011;32110;45.724;21.276;2024-03-23T04:31:08;39.15;;;17.15;;
46407;SDS011;32110;45.724;21.276;2024-03-23T04:33:34;35.90;;;17.38;;
46407;SDS011;32110;45.724;21.276;2024-03-23T04:36:00;37.10;;;17.45;;
46407;SDS011;32110;45.724;21.276;2024-03-23T04:38:25;35.13;;;17.25;;
46407;SDS011;32110;45.724;21.276;2024-03-23T04:40:57;33.15;;;15.70;;
46407;SDS011;32110;45.724;21.276;2024-03-23T04:43:23;36.72;;;16.55;;
46407;SDS011;32110;45.724;21.276;2024-03-23T04:45:49;32.20;;;16.30;;
46407;SDS011;32110;45.724;21.276;2024-03-23T04:48:14;31.77;;;15.90;;
46407;SDS011;32110;45.724;21.276;2024-03-23T04:50:40;35.13;;;15.32;;
46407;SDS011;32110;45.724;21.276;2024-03-23T04:53:06;28.45;;;15.52;;
46407;SDS011;32110;45.724;21.276;2024-03-23T04:55:32;30.42;;;14.88;;
46407;SDS011;32110;45.724;21.276;2024-03-23T04:57:58;32.58;;;15.35;;
46407;SDS011;32110;45.724;21.276;2024-03-23T05:00:23;28.88;;;15.43;;
46407;SDS011;32110;45.724;21.276;2024-03-23T05:02:50;31.95;;;15.95;;
46407;SDS011;32110;45.724;21.276;2024-03-23T05:05:15;31.50;;;15.95;;
46407;SDS011;32110;45.724;21.276;2024-03-23T05:07:41;31.65;;;15.38;;
46407;SDS011;32110;45.724;21.276;2024-03-23T05:10:07;31.95;;;16.40;;
46407;SDS011;32110;45.724;21.276;2024-03-23T05:12:36;34.40;;;14.70;;
46407;SDS011;32110;45.724;21.276;2024-03-23T05:15:03;27.48;;;15.25;;
46407;SDS011;32110;45.724;21.276;2024-03-23T05:17:29;33.50;;;15.75;;
46407;SDS011;32110;45.724;21.276;2024-03-23T05:19:56;33.38;;;15.52;;
46407;SDS011;32110;45.724;21.276;2024-03-23T05:22:22;31.42;;;14.75;;
46407;SDS011;32110;45.724;21.276;2024-03-23T05:24:47;35.50;;;15.25;;
46407;SDS011;32110;45.724;21.276;2024-03-23T05:27:13;29.30;;;14.73;;
46407;SDS011;32110;45.724;21.276;2024-03-23T05:29:38;30.10;;;16.42;;
46407;SDS011;32110;45.724;21.276;2024-03-23T05:32:04;28.20;;;16.27;;
46407;SDS011;32110;45.724;21.276;2024-03-23T05:34:29;29.08;;;15.75;;
46407;SDS011;32110;45.724;21.276;2024-03-23T05:36:55;27.83;;;15.07;;
46407;SDS011;32110;45.724;21.276;2024-03-23T05:39:20;28.92;;;15.25;;
46407;SDS011;32110;45.724;21.276;2024-03-23T05:41:47;27.10;;;15.35;;
46407;SDS011;32110;45.724;21.276;2024-03-23T05:44:13;29.83;;;15.30;;
46407;SDS011;32110;45.724;21.276;2024-03-23T05:46:40;30.48;;;15.15;;
46407;SDS011;32110;45.724;21.276;2024-03-23T05:49:05;39.90;;;15.43;;
46407;SDS011;32110;45.724;21.276;2024-03-23T05:51:31;30.15;;;14.63;;
46407;SDS011;32110;45.724;21.276;2024-03-23T05:53:56;35.22;;;15.73;;
46407;SDS011;32110;45.724;21.276;2024-03-23T05:56:22;29.73;;;15.25;;
46407;SDS011;32110;45.724;21.276;2024-03-23T05:58:47;30.00;;;15.35;;
46407;SDS011;32110;45.724;21.276;2024-03-23T06:01:13;29.75;;;14.65;;
46407;SDS011;32110;45.724;21.276;2024-03-23T06:03:39;26.58;;;14.48;;
46407;SDS011;32110;45.724;21.276;2024-03-23T06:06:04;30.35;;;14.40;;
46407;SDS011;32110;45.724;21.276;2024-03-23T06:08:35;30.75;;;14.85;;
46407;SDS011;32110;45.724;21.276;2024-03-23T06:11:01;33.22;;;14.98;;
46407;SDS011;32110;45.724;21.276;2024-03-23T06:13:26;30.17;;;14.35;;
46407;SDS011;32110;45.724;21.276;2024-03-23T06:15:55;29.77;;;14.83;;
46407;SDS011;32110;45.724;21.276;2024-03-23T06:18:20;32.72;;;14.63;;
46407;SDS011;32110;45.724;21.276;2024-03-23T06:20:46;27.67;;;15.10;;
46407;SDS011;32110;45.724;21.276;2024-03-23T06:23:11;30.33;;;15.25;;
46407;SDS011;32110;45.724;21.276;2024-03-23T06:25:37;27.35;;;13.48;;
46407;SDS011;32110;45.724;21.276;2024-03-23T06:28:03;37.28;;;15.60;;
46407;SDS011;32110;45.724;21.276;2024-03-23T06:30:29;28.48;;;14.65;;
46407;SDS011;32110;45.724;21.276;2024-03-23T06:32:56;46.55;;;17.38;;
46407;SDS011;32110;45.724;21.276;2024-03-23T06:35:22;26.45;;;13.57;;
46407;SDS011;32110;45.724;21.276;2024-03-23T06:37:47;26.38;;;13.43;;
46407;SDS011;32110;45.724;21.276;2024-03-23T06:40:13;24.83;;;11.88;;
46407;SDS011;32110;45.724;21.276;2024-03-23T06:42:38;24.75;;;12.48;;
46407;SDS011;32110;45.724;21.276;2024-03-23T06:45:05;24.02;;;11.98;;
46407;SDS011;32110;45.724;21.276;2024-03-23T06:47:31;26.33;;;12.35;;
46407;SDS011;32110;45.724;21.276;2024-03-23T06:49:56;21.27;;;11.85;;
46407;SDS011;32110;45.724;21.276;2024-03-23T06:52:22;25.00;;;12.10;;
46407;SDS011;32110;45.724;21.276;2024-03-23T06:54:48;25.92;;;12.57;;
46407;SDS011;32110;45.724;21.276;2024-03-23T06:57:13;26.17;;;12.05;;
46407;SDS011;32110;45.724;21.276;2024-03-23T06:59:39;22.75;;;12.05;;
46407;SDS011;32110;45.724;21.276;2024-03-23T07:02:05;20.42;;;11.23;;
46407;SDS011;32110;45.724;21.276;2024-03-23T07:04:33;24.77;;;11.68;;
46407;SDS011;32110;45.724;21.276;2024-03-23T07:06:59;20.73;;;12.00;;
46407;SDS011;32110;45.724;21.276;2024-03-23T07:09:24;26.90;;;12.32;;
46407;SDS011;32110;45.724;21.276;2024-03-23T07:11:53;28.58;;;13.10;;
46407;SDS011;32110;45.724;21.276;2024-03-23T07:14:19;26.25;;;13.38;;
46407;SDS011;32110;45.724;21.276;2024-03-23T07:16:45;26.20;;;12.82;;
46407;SDS011;32110;45.724;21.276;2024-03-23T07:19:10;24.55;;;13.38;;
46407;SDS011;32110;45.724;21.276;2024-03-23T07:21:36;25.27;;;11.77;;
46407;SDS011;32110;45.724;21.276;2024-03-23T07:24:01;23.05;;;12.15;;
46407;SDS011;32110;45.724;21.276;2024-03-23T07:26:26;25.48;;;11.90;;
46407;SDS011;32110;45.724;21.276;2024-03-23T07:28:52;23.65;;;12.32;;
46407;SDS011;32110;45.724;21.276;2024-03-23T07:31:20;22.98;;;11.52;;
46407;SDS011;32110;45.724;21.276;2024-03-23T07:33:48;23.50;;;12.07;;
46407;SDS011;32110;45.724;21.276;2024-03-23T07:36:13;22.25;;;12.52;;
46407;SDS011;32110;45.724;21.276;2024-03-23T07:38:42;25.98;;;12.55;;
46407;SDS011;32110;45.724;21.276;2024-03-23T07:41:14;26.20;;;12.25;;
46407;SDS011;32110;45.724;21.276;2024-03-23T07:43:42;22.73;;;12.23;;
46407;SDS011;32110;45.724;21.276;2024-03-23T07:46:07;23.08;;;12.40;;
46407;SDS011;32110;45.724;21.276;2024-03-23T07:48:33;23.52;;;12.18;;
46407;SDS011;32110;45.724;21.276;2024-03-23T07:51:00;26.00;;;12.43;;
46407;SDS011;32110;45.724;21.276;2024-03-23T07:53:30;24.95;;;12.13;;
46407;SDS011;32110;45.724;21.276;2024-03-23T07:55:57;25.95;;;12.75;;
46407;SDS011;32110;45.724;21.276;2024-03-23T07:58:24;24.90;;;12.25;;
46407;SDS011;32110;45.724;21.276;2024-03-23T08:00:51;27.85;;;13.45;;
46407;SDS011;32110;45.724;21.276;2024-03-23T08:03:17;24.33;;;13.05;;
46407;SDS011;32110;45.724;21.276;2024-03-23T08:05:42;24.58;;;12.15;;
46407;SDS011;32110;45.724;21.276;2024-03-23T08:08:08;27.48;;;12.82;;
46407;SDS011;32110;45.724;21.276;2024-03-23T08:10:33;26.25;;;11.85;;
46407;SDS011;32110;45.724;21.276;2024-03-23T08:12:59;22.73;;;11.73;;
46407;SDS011;32110;45.724;21.276;2024-03-23T08:15:24;25.27;;;12.23;;
46407;SDS011;32110;45.724;21.276;2024-03-23T08:17:50;25.52;;;12.20;;
46407;SDS011;32110;45.724;21.276;2024-03-23T08:20:18;21.95;;;11.57;;
46407;SDS011;32110;45.724;21.276;2024-03-23T08:22:44;23.00;;;12.13;;
46407;SDS011;32110;45.724;21.276;2024-03-23T08:25:10;25.45;;;12.20;;
46407;SDS011;32110;45.724;21.276;2024-03-23T08:27:35;22.70;;;11.15;;
46407;SDS011;32110;45.724;21.276;2024-03-23T08:30:00;23.58;;;11.80;;
46407;SDS011;32110;45.724;21.276;2024-03-23T08:32:26;22.08;;;11.27;;
46407;SDS011;32110;45.724;21.276;2024-03-23T08:34:51;23.17;;;12.25;;
46407;SDS011;32110;45.724;21.276;2024-03-23T08:37:17;22.55;;;11.57;;
46407;SDS011;32110;45.724;21.276;2024-03-23T08:39:43;21.70;;;11.02;;
46407;SDS011;32110;45.724;21.276;2024-03-23T08:42:08;20.75;;;11.60;;
46407;SDS011;32110;45.724;21.276;2024-03-23T08:44:34;19.83;;;11.00;;
46407;SDS011;32110;45.724;21.276;2024-03-23T08:47:00;24.67;;;11.23;;
46407;SDS011;32110;45.724;21.276;2024-03-23T08:49:26;20.58;;;11.50;;
46407;SDS011;32110;45.724;21.276;2024-03-23T08:51:52;25.65;;;12.02;;
46407;SDS011;32110;45.724;21.276;2024-03-23T08:54:17;20.38;;;10.98;;
46407;SDS011;32110;45.724;21.276;2024-03-23T08:56:45;25.20;;;11.98;;
46407;SDS011;32110;45.724;21.276;2024-03-23T08:59:10;22.23;;;10.80;;
46407;SDS011;32110;45.724;21.276;2024-03-23T09:01:36;22.85;;;10.90;;
46407;SDS011;32110;45.724;21.276;2024-03-23T09:04:02;25.58;;;10.73;;
46407;SDS011;32110;45.724;21.276;2024-03-23T09:06:27;24.30;;;10.82;;
46407;SDS011;32110;45.724;21.276;2024-03-23T09:08:53;22.48;;;11.02;;
46407;SDS011;32110;45.724;21.276;2024-03-23T09:11:18;23.27;;;10.85;;
46407;SDS011;32110;45.724;21.276;2024-03-23T09:13:44;20.30;;;10.40;;
46407;SDS011;32110;45.724;21.276;2024-03-23T09:16:09;23.23;;;10.38;;
46407;SDS011;32110;45.724;21.276;2024-03-23T09:18:35;24.55;;;11.50;;
46407;SDS011;32110;45.724;21.276;2024-03-23T09:21:02;22.35;;;10.57;;
46407;SDS011;32110;45.724;21.276;2024-03-23T09:23:28;22.67;;;10.68;;
46407;SDS011;32110;45.724;21.276;2024-03-23T09:25:54;21.00;;;10.45;;
46407;SDS011;32110;45.724;21.276;2024-03-23T09:28:19;22.42;;;10.65;;
46407;SDS011;32110;45.724;21.276;2024-03-23T09:30:45;18.20;;;10.05;;
46407;SDS011;32110;45.724;21.276;2024-03-23T09:33:11;21.73;;;10.88;;
46407;SDS011;32110;45.724;21.276;2024-03-23T09:35:40;20.23;;;10.32;;
46407;SDS011;32110;45.724;21.276;2024-03-23T09:38:07;20.20;;;9.73;;
46407;SDS011;32110;45.724;21.276;2024-03-23T09:40:34;22.40;;;9.98;;
46407;SDS011;32110;45.724;21.276;2024-03-23T09:42:59;21.42;;;9.57;;
46407;SDS011;32110;45.724;21.276;2024-03-23T09:45:28;18.75;;;10.23;;
46407;SDS011;32110;45.724;21.276;2024-03-23T09:47:54;18.20;;;9.25;;
46407;SDS011;32110;45.724;21.276;2024-03-23T09:50:21;20.33;;;10.70;;
46407;SDS011;32110;45.724;21.276;2024-03-23T09:52:47;17.67;;;10.02;;
46407;SDS011;32110;45.724;21.276;2024-03-23T09:55:12;20.95;;;10.65;;
46407;SDS011;32110;45.724;21.276;2024-03-23T09:57:39;23.25;;;9.85;;
46407;SDS011;32110;45.724;21.276;2024-03-23T10:00:05;23.02;;;10.18;;
46407;SDS011;32110;45.724;21.276;2024-03-23T10:02:31;21.83;;;10.80;;
46407;SDS011;32110;45.724;21.276;2024-03-23T10:04:57;22.65;;;10.43;;
46407;SDS011;32110;45.724;21.276;2024-03-23T10:07:23;19.15;;;10.18;;
46407;SDS011;32110;45.724;21.276;2024-03-23T10:09:49;22.02;;;9.77;;
46407;SDS011;32110;45.724;21.276;2024-03-23T10:12:18;19.17;;;9.37;;
46407;SDS011;32110;45.724;21.276;2024-03-23T10:14:44;18.60;;;9.43;;
46407;SDS011;32110;45.724;21.276;2024-03-23T10:17:20;18.42;;;9.65;;
46407;SDS011;32110;45.724;21.276;2024-03-23T10:19:50;17.67;;;9.27;;
46407;SDS011;32110;45.724;21.276;2024-03-23T10:22:23;16.10;;;8.38;;
46407;SDS011;32110;45.724;21.276;2024-03-23T10:24:55;14.85;;;8.60;;
46407;SDS011;32110;45.724;21.276;2024-03-23T10:27:35;15.32;;;8.50;;
46407;SDS011;32110;45.724;21.276;2024-03-23T10:30:08;16.48;;;8.50;;
46407;SDS011;32110;45.724;21.276;2024-03-23T10:32:38;17.20;;;8.90;;
46407;SDS011;32110;45.724;21.276;2024-03-23T10:35:21;15.50;;;9.32;;
46407;SDS011;32110;45.724;21.276;2024-03-23T10:37:47;17.95;;;9.07;;
46407;SDS011;32110;45.724;21.276;2024-03-23T10:40:16;16.00;;;8.55;;
46407;SDS011;32110;45.724;21.276;2024-03-23T10:42:43;18.55;;;8.82;;
46407;SDS011;32110;45.724;21.276;2024-03-23T10:45:08;14.85;;;8.50;;
46407;SDS011;32110;45.724;21.276;2024-03-23T10:47:34;16.10;;;8.10;;
46407;SDS011;32110;45.724;21.276;2024-03-23T10:50:00;15.88;;;8.02;;
46407;SDS011;32110;45.724;21.276;2024-03-23T10:52:26;16.23;;;7.88;;
46407;SDS011;32110;45.724;21.276;2024-03-23T10:54:51;14.85;;;7.38;;
46407;SDS011;32110;45.724;21.276;2024-03-23T10:57:18;16.20;;;7.32;;
46407;SDS011;32110;45.724;21.276;2024-03-23T10:59:45;14.70;;;8.25;;
46407;SDS011;32110;45.724;21.276;2024-03-23T11:02:20;13.50;;;7.82;;
46407;SDS011;32110;45.724;21.276;2024-03-23T11:04:46;11.65;;;6.82;;
46407;SDS011;32110;45.724;21.276;2024-03-23T11:09:48;11.57;;;6.28;;
46407;SDS011;32110;45.724;21.276;2024-03-23T11:14:50;14.88;;;6.30;;
46407;SDS011;32110;45.724;21.276;2024-03-23T11:17:19;10.70;;;6.30;;
46407;SDS011;32110;45.724;21.276;2024-03-23T11:19:44;10.80;;;5.45;;
46407;SDS011;32110;45.724;21.276;2024-03-23T11:22:09;9.02;;;5.35;;
46407;SDS011;32110;45.724;21.276;2024-03-23T11:24:35;7.90;;;5.25;;
46407;SDS011;32110;45.724;21.276;2024-03-23T11:27:00;9.10;;;5.63;;
46407;SDS011;32110;45.724;21.276;2024-03-23T11:29:29;14.07;;;5.47;;
46407;SDS011;32110;45.724;21.276;2024-03-23T11:31:58;9.55;;;5.25;;
46407;SDS011;32110;45.724;21.276;2024-03-23T11:34:24;8.80;;;5.55;;
46407;SDS011;32110;45.724;21.276;2024-03-23T11:37:07;8.43;;;5.63;;
46407;SDS011;32110;45.724;21.276;2024-03-23T11:39:33;8.35;;;5.43;;
46407;SDS011;32110;45.724;21.276;2024-03-23T11:41:59;10.63;;;6.10;;
46407;SDS011;32110;45.724;21.276;2024-03-23T11:44:27;10.65;;;5.78;;
46407;SDS011;32110;45.724;21.276;2024-03-23T11:46:53;10.23;;;5.78;;
46407;SDS011;32110;45.724;21.276;2024-03-23T11:49:22;10.63;;;4.85;;
46407;SDS011;32110;45.724;21.276;2024-03-23T11:51:51;11.50;;;5.93;;
46407;SDS011;32110;45.724;21.276;2024-03-23T11:54:21;10.90;;;5.90;;
46407;SDS011;32110;45.724;21.276;2024-03-23T11:57:00;10.20;;;5.60;;
46407;SDS011;32110;45.724;21.276;2024-03-23T12:02:00;10.10;;;5.40;;
46407;SDS011;32110;45.724;21.276;2024-03-23T12:04:31;7.15;;;5.28;;
46407;SDS011;32110;45.724;21.276;2024-03-23T12:09:38;7.38;;;4.78;;
46407;SDS011;32110;45.724;21.276;2024-03-23T12:12:05;9.38;;;5.25;;
46407;SDS011;32110;45.724;21.276;2024-03-23T12:14:42;9.00;;;5.28;;
46407;SDS011;32110;45.724;21.276;2024-03-23T12:17:11;9.88;;;5.57;;
46407;SDS011;32110;45.724;21.276;2024-03-23T12:19:38;8.93;;;4.80;;
46407;SDS011;32110;45.724;21.276;2024-03-23T12:22:05;7.38;;;4.75;;
46407;SDS011;32110;45.724;21.276;2024-03-23T12:24:32;9.88;;;4.88;;
46407;SDS011;32110;45.724;21.276;2024-03-23T12:27:01;10.90;;;4.85;;
46407;SDS011;32110;45.724;21.276;2024-03-23T12:29:28;11.20;;;5.32;;
46407;SDS011;32110;45.724;21.276;2024-03-23T12:31:54;9.18;;;4.80;;
46407;SDS011;32110;45.724;21.276;2024-03-23T12:34:21;9.75;;;4.63;;
46407;SDS011;32110;45.724;21.276;2024-03-23T12:36:46;10.73;;;5.38;;
46407;SDS011;32110;45.724;21.276;2024-03-23T12:39:12;8.20;;;5.10;;
46407;SDS011;32110;45.724;21.276;2024-03-23T12:41:37;8.82;;;4.72;;
46407;SDS011;32110;45.724;21.276;2024-03-23T12:44:03;9.32;;;5.25;;
46407;SDS011;32110;45.724;21.276;2024-03-23T12:46:28;9.57;;;4.50;;
46407;SDS011;32110;45.724;21.276;2024-03-23T12:48:54;10.18;;;5.45;;
46407;SDS011;32110;45.724;21.276;2024-03-23T12:51:19;11.40;;;5.30;;
46407;SDS011;32110;45.724;21.276;2024-03-23T12:53:45;7.85;;;4.25;;
46407;SDS011;32110;45.724;21.276;2024-03-23T12:56:11;5.63;;;4.20;;
46407;SDS011;32110;45.724;21.276;2024-03-23T12:58:37;5.82;;;3.97;;
46407;SDS011;32110;45.724;21.276;2024-03-23T13:01:05;5.38;;;3.50;;
46407;SDS011;32110;45.724;21.276;2024-03-23T13:03:34;6.35;;;4.35;;
46407;SDS011;32110;45.724;21.276;2024-03-23T13:06:00;6.18;;;3.90;;
46407;SDS011;32110;45.724;21.276;2024-03-23T13:08:25;7.28;;;4.40;;
46407;SDS011;32110;45.724;21.276;2024-03-23T13:10:51;6.90;;;4.40;;
46407;SDS011;32110;45.724;21.276;2024-03-23T13:13:17;10.93;;;4.13;;
46407;SDS011;32110;45.724;21.276;2024-03-23T13:15:49;6.43;;;4.13;;
46407;SDS011;32110;45.724;21.276;2024-03-23T13:18:15;7.60;;;4.40;;
46407;SDS011;32110;45.724;21.276;2024-03-23T13:20:40;6.70;;;4.38;;
46407;SDS011;32110;45.724;21.276;2024-03-23T13:23:06;6.85;;;4.32;;
46407;SDS011;32110;45.724;21.276;2024-03-23T13:25:31;8.02;;;4.70;;
46407;SDS011;32110;45.724;21.276;2024-03-23T13:27:58;6.03;;;3.78;;
46407;SDS011;32110;45.724;21.276;2024-03-23T13:30:24;6.32;;;3.92;;
46407;SDS011;32110;45.724;21.276;2024-03-23T13:32:49;7.35;;;3.88;;
46407;SDS011;32110;45.724;21.276;2024-03-23T13:35:15;8.73;;;3.95;;
46407;SDS011;32110;45.724;21.276;2024-03-23T13:37:41;7.10;;;3.80;;
46407;SDS011;32110;45.724;21.276;2024-03-23T13:40:07;8.48;;;4.10;;
46407;SDS011;32110;45.724;21.276;2024-03-23T13:42:33;8.38;;;4.10;;
46407;SDS011;32110;45.724;21.276;2024-03-23T13:44:59;6.00;;;3.78;;
46407;SDS011;32110;45.724;21.276;2024-03-23T13:47:27;5.28;;;3.80;;
46407;SDS011;32110;45.724;21.276;2024-03-23T13:49:53;8.63;;;4.15;;
46407;SDS011;32110;45.724;21.276;2024-03-23T13:52:18;8.63;;;4.53;;
46407;SDS011;32110;45.724;21.276;2024-03-23T13:54:47;8.25;;;3.67;;
46407;SDS011;32110;45.724;21.276;2024-03-23T13:57:13;7.22;;;4.20;;
46407;SDS011;32110;45.724;21.276;2024-03-23T13:59:39;6.32;;;3.90;;
46407;SDS011;32110;45.724;21.276;2024-03-23T14:02:04;8.70;;;4.53;;
46407;SDS011;32110;45.724;21.276;2024-03-23T14:04:30;4.80;;;3.92;;
46407;SDS011;32110;45.724;21.276;2024-03-23T14:06:56;7.82;;;4.28;;
46407;SDS011;32110;45.724;21.276;2024-03-23T14:09:21;7.55;;;4.32;;
46407;SDS011;32110;45.724;21.276;2024-03-23T14:11:50;5.75;;;3.70;;
46407;SDS011;32110;45.724;21.276;2024-03-23T14:14:16;6.45;;;4.20;;
46407;SDS011;32110;45.724;21.276;2024-03-23T14:16:42;7.30;;;4.10;;
46407;SDS011;32110;45.724;21.276;2024-03-23T14:19:08;6.10;;;4.00;;
46407;SDS011;32110;45.724;21.276;2024-03-23T14:21:34;5.88;;;4.53;;
46407;SDS011;32110;45.724;21.276;2024-03-23T14:24:00;6.35;;;4.25;;
46407;SDS011;32110;45.724;21.276;2024-03-23T14:26:26;5.40;;;4.00;;
46407;SDS011;32110;45.724;21.276;2024-03-23T14:28:52;7.07;;;4.32;;
46407;SDS011;32110;45.724;21.276;2024-03-23T14:31:18;7.95;;;4.22;;
46407;SDS011;32110;45.724;21.276;2024-03-23T14:33:43;9.55;;;4.78;;
46407;SDS011;32110;45.724;21.276;2024-03-23T14:36:15;7.50;;;4.95;;
46407;SDS011;32110;45.724;21.276;2024-03-23T14:38:42;8.35;;;4.72;;
46407;SDS011;32110;45.724;21.276;2024-03-23T14:41:12;11.07;;;4.70;;
46407;SDS011;32110;45.724;21.276;2024-03-23T14:43:38;6.47;;;4.30;;
46407;SDS011;32110;45.724;21.276;2024-03-23T14:46:10;6.93;;;4.93;;
46407;SDS011;32110;45.724;21.276;2024-03-23T14:48:36;5.32;;;4.13;;
46407;SDS011;32110;45.724;21.276;2024-03-23T14:51:02;10.07;;;4.20;;
46407;SDS011;32110;45.724;21.276;2024-03-23T14:53:30;6.85;;;4.18;;
46407;SDS011;32110;45.724;21.276;2024-03-23T14:55:56;8.65;;;4.45;;
46407;SDS011;32110;45.724;21.276;2024-03-23T14:58:22;6.03;;;4.45;;
46407;SDS011;32110;45.724;21.276;2024-03-23T15:00:51;8.77;;;5.05;;
46407;SDS011;32110;45.724;21.276;2024-03-23T15:03:19;9.68;;;4.97;;
46407;SDS011;32110;45.724;21.276;2024-03-23T15:05:54;6.20;;;4.20;;
46407;SDS011;32110;45.724;21.276;2024-03-23T15:08:20;9.07;;;5.00;;
46407;SDS011;32110;45.724;21.276;2024-03-23T15:10:46;16.88;;;4.90;;
46407;SDS011;32110;45.724;21.276;2024-03-23T15:13:11;11.13;;;4.80;;
46407;SDS011;32110;45.724;21.276;2024-03-23T15:15:40;10.93;;;4.95;;